sensor_id;sensor_type;location;lat;lon;timestamp;P1;durP1;ratioP1;P2;durP2;ratioP2
42846;SDS011;28495;49.916;14.536;2022-10-16T00:01:54;2.08;;;1.88;;
42846;SDS011;28495;49.916;14.536;2022-10-16T00:07:15;3.42;;;2.30;;
42846;SDS011;28495;49.916;14.536;2022-10-16T00:12:35;3.25;;;2.30;;
42846;SDS011;28495;49.916;14.536;2022-10-16T00:17:56;2.78;;;2.30;;
42846;SDS011;28495;49.916;14.536;2022-10-16T00:23:16;3.47;;;2.83;;
42846;SDS011;28495;49.916;14.536;2022-10-16T00:28:37;3.05;;;2.30;;
42846;SDS011;28495;49.916;14.536;2022-10-16T00:33:58;3.40;;;2.70;;
42846;SDS011;28495;49.916;14.536;2022-10-16T00:39:20;6.55;;;2.67;;
42846;SDS011;28495;49.916;14.536;2022-10-16T00:44:50;2.60;;;2.35;;
42846;SDS011;28495;49.916;14.536;2022-10-16T00:50:27;4.18;;;2.90;;
42846;SDS011;28495;49.916;14.536;2022-10-16T00:55:51;6.90;;;2.15;;
42846;SDS011;28495;49.916;14.536;2022-10-16T01:01:12;3.72;;;2.13;;
42846;SDS011;28495;49.916;14.536;2022-10-16T01:12:52;3.15;;;2.20;;
42846;SDS011;28495;49.916;14.536;2022-10-16T01:18:36;2.53;;;2.10;;
42846;SDS011;28495;49.916;14.536;2022-10-16T01:24:15;4.47;;;2.70;;
42846;SDS011;28495;49.916;14.536;2022-10-16T01:29:59;2.50;;;1.83;;
42846;SDS011;28495;49.916;14.536;2022-10-16T01:35:38;5.00;;;2.90;;
42846;SDS011;28495;49.916;14.536;2022-10-16T01:41:06;4.10;;;2.55;;
42846;SDS011;28495;49.916;14.536;2022-10-16T01:46:36;3.80;;;2.05;;
42846;SDS011;28495;49.916;14.536;2022-10-16T01:52:00;4.82;;;2.40;;
42846;SDS011;28495;49.916;14.536;2022-10-16T01:57:25;4.78;;;2.58;;
42846;SDS011;28495;49.916;14.536;2022-10-16T02:02:48;4.60;;;2.25;;
42846;SDS011;28495;49.916;14.536;2022-10-16T02:08:12;2.83;;;2.05;;
42846;SDS011;28495;49.916;14.536;2022-10-16T02:13:35;3.92;;;2.45;;
42846;SDS011;28495;49.916;14.536;2022-10-16T02:18:59;3.60;;;2.10;;
42846;SDS011;28495;49.916;14.536;2022-10-16T02:30:07;2.83;;;2.15;;
42846;SDS011;28495;49.916;14.536;2022-10-16T02:35:33;8.27;;;2.47;;
42846;SDS011;28495;49.916;14.536;2022-10-16T02:40:55;4.43;;;2.35;;
42846;SDS011;28495;49.916;14.536;2022-10-16T02:46:17;5.78;;;2.47;;
42846;SDS011;28495;49.916;14.536;2022-10-16T02:51:38;4.65;;;2.50;;
42846;SDS011;28495;49.916;14.536;2022-10-16T02:56:59;3.13;;;2.35;;
42846;SDS011;28495;49.916;14.536;2022-10-16T03:02:19;4.25;;;2.20;;
42846;SDS011;28495;49.916;14.536;2022-10-16T03:07:40;6.82;;;2.00;;
42846;SDS011;28495;49.916;14.536;2022-10-16T03:13:01;2.70;;;1.80;;
42846;SDS011;28495;49.916;14.536;2022-10-16T03:18:21;1.98;;;1.88;;
42846;SDS011;28495;49.916;14.536;2022-10-16T03:23:42;3.40;;;1.52;;
42846;SDS011;28495;49.916;14.536;2022-10-16T03:29:03;1.67;;;1.30;;
42846;SDS011;28495;49.916;14.536;2022-10-16T03:34:24;1.50;;;1.30;;
42846;SDS011;28495;49.916;14.536;2022-10-16T03:39:44;3.78;;;1.00;;
42846;SDS011;28495;49.916;14.536;2022-10-16T03:45:05;2.42;;;1.30;;
42846;SDS011;28495;49.916;14.536;2022-10-16T03:50:26;3.33;;;1.40;;
42846;SDS011;28495;49.916;14.536;2022-10-16T03:55:47;1.95;;;1.27;;
42846;SDS011;28495;49.916;14.536;2022-10-16T04:01:08;1.50;;;1.40;;
42846;SDS011;28495;49.916;14.536;2022-10-16T04:06:28;1.50;;;1.20;;
42846;SDS011;28495;49.916;14.536;2022-10-16T04:11:49;2.92;;;1.40;;
42846;SDS011;28495;49.916;14.536;2022-10-16T04:17:11;4.75;;;2.15;;
42846;SDS011;28495;49.916;14.536;2022-10-16T04:22:32;7.90;;;2.28;;
42846;SDS011;28495;49.916;14.536;2022-10-16T04:27:52;4.25;;;2.60;;
42846;SDS011;28495;49.916;14.536;2022-10-16T04:33:14;6.75;;;3.33;;
42846;SDS011;28495;49.916;14.536;2022-10-16T04:38:34;6.40;;;2.90;;
42846;SDS011;28495;49.916;14.536;2022-10-16T04:43:57;5.22;;;3.08;;
42846;SDS011;28495;49.916;14.536;2022-10-16T04:49:18;4.63;;;2.72;;
42846;SDS011;28495;49.916;14.536;2022-10-16T04:54:39;3.90;;;2.00;;
42846;SDS011;28495;49.916;14.536;2022-10-16T05:00:00;3.90;;;2.30;;
42846;SDS011;28495;49.916;14.536;2022-10-16T05:05:21;2.33;;;1.90;;
42846;SDS011;28495;49.916;14.536;2022-10-16T05:10:42;2.28;;;1.70;;
42846;SDS011;28495;49.916;14.536;2022-10-16T05:16:04;3.22;;;2.22;;
42846;SDS011;28495;49.916;14.536;2022-10-16T05:21:25;1.88;;;1.63;;
42846;SDS011;28495;49.916;14.536;2022-10-16T05:26:46;5.35;;;1.88;;
42846;SDS011;28495;49.916;14.536;2022-10-16T05:32:06;3.58;;;1.55;;
42846;SDS011;28495;49.916;14.536;2022-10-16T05:37:28;3.75;;;1.65;;
42846;SDS011;28495;49.916;14.536;2022-10-16T05:42:49;3.47;;;1.67;;
42846;SDS011;28495;49.916;14.536;2022-10-16T05:48:09;1.90;;;1.50;;
42846;SDS011;28495;49.916;14.536;2022-10-16T05:53:31;1.77;;;1.40;;
42846;SDS011;28495;49.916;14.536;2022-10-16T05:58:54;2.22;;;1.55;;
42846;SDS011;28495;49.916;14.536;2022-10-16T06:04:14;1.50;;;1.10;;
42846;SDS011;28495;49.916;14.536;2022-10-16T06:09:35;2.20;;;1.10;;
42846;SDS011;28495;49.916;14.536;2022-10-16T06:14:56;1.40;;;1.30;;
42846;SDS011;28495;49.916;14.536;2022-10-16T06:20:16;4.78;;;1.50;;
42846;SDS011;28495;49.916;14.536;2022-10-16T06:25:37;1.35;;;1.25;;
42846;SDS011;28495;49.916;14.536;2022-10-16T06:31:01;1.73;;;1.30;;
42846;SDS011;28495;49.916;14.536;2022-10-16T06:36:27;3.15;;;2.08;;
42846;SDS011;28495;49.916;14.536;2022-10-16T06:41:48;1.15;;;1.05;;
42846;SDS011;28495;49.916;14.536;2022-10-16T06:47:09;2.08;;;1.30;;
42846;SDS011;28495;49.916;14.536;2022-10-16T06:52:29;2.30;;;1.55;;
42846;SDS011;28495;49.916;14.536;2022-10-16T06:57:50;1.30;;;1.20;;
42846;SDS011;28495;49.916;14.536;2022-10-16T07:03:11;8.38;;;1.30;;
42846;SDS011;28495;49.916;14.536;2022-10-16T07:08:32;1.70;;;1.52;;
42846;SDS011;28495;49.916;14.536;2022-10-16T07:13:54;1.65;;;1.35;;
42846;SDS011;28495;49.916;14.536;2022-10-16T07:19:16;1.33;;;1.23;;
42846;SDS011;28495;49.916;14.536;2022-10-16T07:24:38;1.90;;;1.35;;
42846;SDS011;28495;49.916;14.536;2022-10-16T07:29:58;1.35;;;1.25;;
42846;SDS011;28495;49.916;14.536;2022-10-16T07:35:26;1.60;;;1.20;;
42846;SDS011;28495;49.916;14.536;2022-10-16T07:40:46;3.00;;;1.20;;
42846;SDS011;28495;49.916;14.536;2022-10-16T07:46:08;2.22;;;1.67;;
42846;SDS011;28495;49.916;14.536;2022-10-16T07:51:29;2.25;;;2.00;;
42846;SDS011;28495;49.916;14.536;2022-10-16T07:56:51;1.63;;;1.42;;
42846;SDS011;28495;49.916;14.536;2022-10-16T08:02:12;1.42;;;1.33;;
42846;SDS011;28495;49.916;14.536;2022-10-16T08:07:33;2.10;;;1.67;;
42846;SDS011;28495;49.916;14.536;2022-10-16T08:12:53;4.50;;;3.00;;
42846;SDS011;28495;49.916;14.536;2022-10-16T08:18:15;5.00;;;2.60;;
42846;SDS011;28495;49.916;14.536;2022-10-16T08:23:36;4.82;;;2.55;;
42846;SDS011;28495;49.916;14.536;2022-10-16T08:28:57;4.30;;;2.58;;
42846;SDS011;28495;49.916;14.536;2022-10-16T08:34:17;6.22;;;3.20;;
42846;SDS011;28495;49.916;14.536;2022-10-16T08:39:38;8.05;;;3.22;;
42846;SDS011;28495;49.916;14.536;2022-10-16T08:50:36;3.97;;;1.67;;
42846;SDS011;28495;49.916;14.536;2022-10-16T08:56:00;3.30;;;1.48;;
42846;SDS011;28495;49.916;14.536;2022-10-16T09:01:21;1.67;;;1.30;;
42846;SDS011;28495;49.916;14.536;2022-10-16T09:12:28;3.47;;;1.48;;
42846;SDS011;28495;49.916;14.536;2022-10-16T09:23:36;2.88;;;1.60;;
42846;SDS011;28495;49.916;14.536;2022-10-16T09:28:58;2.88;;;1.50;;
42846;SDS011;28495;49.916;14.536;2022-10-16T09:39:57;2.08;;;1.40;;
42846;SDS011;28495;49.916;14.536;2022-10-16T09:45:20;1.80;;;1.02;;
42846;SDS011;28495;49.916;14.536;2022-10-16T09:50:43;1.95;;;1.65;;
42846;SDS011;28495;49.916;14.536;2022-10-16T09:56:04;3.13;;;1.77;;
42846;SDS011;28495;49.916;14.536;2022-10-16T10:01:36;1.80;;;1.63;;
42846;SDS011;28495;49.916;14.536;2022-10-16T10:06:59;2.30;;;1.63;;
42846;SDS011;28495;49.916;14.536;2022-10-16T10:12:21;3.88;;;1.88;;
42846;SDS011;28495;49.916;14.536;2022-10-16T10:17:48;3.42;;;1.67;;
42846;SDS011;28495;49.916;14.536;2022-10-16T10:23:23;1.45;;;1.27;;
42846;SDS011;28495;49.916;14.536;2022-10-16T10:28:50;1.83;;;1.40;;
42846;SDS011;28495;49.916;14.536;2022-10-16T10:45:34;3.25;;;1.70;;
42846;SDS011;28495;49.916;14.536;2022-10-16T10:51:30;2.38;;;1.00;;
42846;SDS011;28495;49.916;14.536;2022-10-16T11:08:19;1.80;;;1.00;;
42846;SDS011;28495;49.916;14.536;2022-10-16T11:13:58;1.65;;;1.23;;
42846;SDS011;28495;49.916;14.536;2022-10-16T11:20:37;1.67;;;0.70;;
42846;SDS011;28495;49.916;14.536;2022-10-16T11:25:36;0.60;;;0.60;;
42846;SDS011;28495;49.916;14.536;2022-10-16T11:42:01;1.02;;;0.90;;
42846;SDS011;28495;49.916;14.536;2022-10-16T11:47:35;0.60;;;0.60;;
42846;SDS011;28495;49.916;14.536;2022-10-16T11:53:38;3.10;;;0.90;;
42846;SDS011;28495;49.916;14.536;2022-10-16T11:59:08;1.95;;;1.05;;
42846;SDS011;28495;49.916;14.536;2022-10-16T12:04:40;1.98;;;1.00;;
42846;SDS011;28495;49.916;14.536;2022-10-16T12:10:11;3.83;;;0.73;;
42846;SDS011;28495;49.916;14.536;2022-10-16T12:15:47;0.98;;;0.90;;
42846;SDS011;28495;49.916;14.536;2022-10-16T12:21:19;2.65;;;1.00;;
42846;SDS011;28495;49.916;14.536;2022-10-16T12:26:51;0.90;;;0.90;;
42846;SDS011;28495;49.916;14.536;2022-10-16T12:38:17;2.78;;;0.82;;
42846;SDS011;28495;49.916;14.536;2022-10-16T12:43:46;3.00;;;0.90;;
42846;SDS011;28495;49.916;14.536;2022-10-16T12:54:36;3.10;;;0.80;;
42846;SDS011;28495;49.916;14.536;2022-10-16T13:00:02;0.98;;;0.77;;
42846;SDS011;28495;49.916;14.536;2022-10-16T13:29:15;0.77;;;0.77;;
42846;SDS011;28495;49.916;14.536;2022-10-16T13:34:43;0.60;;;0.60;;
42846;SDS011;28495;49.916;14.536;2022-10-16T13:40:24;1.65;;;0.70;;
42846;SDS011;28495;49.916;14.536;2022-10-16T13:46:01;1.90;;;0.80;;
42846;SDS011;28495;49.916;14.536;2022-10-16T13:51:56;5.80;;;0.77;;
42846;SDS011;28495;49.916;14.536;2022-10-16T13:57:18;0.95;;;0.90;;
42846;SDS011;28495;49.916;14.536;2022-10-16T14:02:49;2.05;;;0.90;;
42846;SDS011;28495;49.916;14.536;2022-10-16T14:08:15;0.85;;;0.63;;
42846;SDS011;28495;49.916;14.536;2022-10-16T14:13:38;3.40;;;1.00;;
42846;SDS011;28495;49.916;14.536;2022-10-16T14:19:04;1.08;;;0.90;;
42846;SDS011;28495;49.916;14.536;2022-10-16T14:30:01;1.10;;;0.80;;
42846;SDS011;28495;49.916;14.536;2022-10-16T14:35:36;5.30;;;0.90;;
42846;SDS011;28495;49.916;14.536;2022-10-16T14:40:59;3.75;;;0.80;;
42846;SDS011;28495;49.916;14.536;2022-10-16T14:46:21;2.33;;;1.10;;
42846;SDS011;28495;49.916;14.536;2022-10-16T14:51:48;3.60;;;1.85;;
42846;SDS011;28495;49.916;14.536;2022-10-16T14:57:17;4.50;;;1.08;;
42846;SDS011;28495;49.916;14.536;2022-10-16T15:02:39;11.13;;;4.40;;
42846;SDS011;28495;49.916;14.536;2022-10-16T15:08:00;2.42;;;1.83;;
42846;SDS011;28495;49.916;14.536;2022-10-16T15:13:21;2.85;;;2.08;;
42846;SDS011;28495;49.916;14.536;2022-10-16T15:18:42;12.43;;;4.40;;
42846;SDS011;28495;49.916;14.536;2022-10-16T15:24:05;20.67;;;7.45;;
42846;SDS011;28495;49.916;14.536;2022-10-16T15:29:37;23.83;;;12.95;;
42846;SDS011;28495;49.916;14.536;2022-10-16T15:34:57;27.55;;;13.90;;
42846;SDS011;28495;49.916;14.536;2022-10-16T15:40:19;13.50;;;6.45;;
42846;SDS011;28495;49.916;14.536;2022-10-16T15:45:41;17.42;;;8.55;;
42846;SDS011;28495;49.916;14.536;2022-10-16T15:51:04;5.70;;;3.30;;
42846;SDS011;28495;49.916;14.536;2022-10-16T15:56:27;9.80;;;6.13;;
42846;SDS011;28495;49.916;14.536;2022-10-16T16:01:48;9.57;;;7.35;;
42846;SDS011;28495;49.916;14.536;2022-10-16T16:07:09;5.00;;;3.95;;
42846;SDS011;28495;49.916;14.536;2022-10-16T16:12:30;5.10;;;3.22;;
42846;SDS011;28495;49.916;14.536;2022-10-16T16:17:51;5.90;;;3.08;;
42846;SDS011;28495;49.916;14.536;2022-10-16T16:23:11;4.13;;;3.10;;
42846;SDS011;28495;49.916;14.536;2022-10-16T16:28:32;4.70;;;2.75;;
42846;SDS011;28495;49.916;14.536;2022-10-16T16:33:54;3.78;;;2.67;;
42846;SDS011;28495;49.916;14.536;2022-10-16T16:39:16;6.82;;;2.80;;
42846;SDS011;28495;49.916;14.536;2022-10-16T16:44:38;3.80;;;2.90;;
42846;SDS011;28495;49.916;14.536;2022-10-16T16:49:59;8.45;;;5.05;;
42846;SDS011;28495;49.916;14.536;2022-10-16T16:55:19;9.77;;;4.68;;
42846;SDS011;28495;49.916;14.536;2022-10-16T17:00:46;8.85;;;5.22;;
42846;SDS011;28495;49.916;14.536;2022-10-16T17:06:16;5.70;;;4.80;;
42846;SDS011;28495;49.916;14.536;2022-10-16T17:11:40;7.47;;;5.03;;
42846;SDS011;28495;49.916;14.536;2022-10-16T17:17:03;6.03;;;4.28;;
42846;SDS011;28495;49.916;14.536;2022-10-16T17:22:27;6.25;;;2.88;;
42846;SDS011;28495;49.916;14.536;2022-10-16T17:27:48;5.47;;;3.28;;
42846;SDS011;28495;49.916;14.536;2022-10-16T17:33:09;5.50;;;3.15;;
42846;SDS011;28495;49.916;14.536;2022-10-16T17:38:33;5.70;;;3.75;;
42846;SDS011;28495;49.916;14.536;2022-10-16T17:43:54;6.95;;;4.65;;
42846;SDS011;28495;49.916;14.536;2022-10-16T17:49:16;6.07;;;4.10;;
42846;SDS011;28495;49.916;14.536;2022-10-16T17:54:37;5.55;;;4.05;;
42846;SDS011;28495;49.916;14.536;2022-10-16T17:59:59;6.35;;;3.05;;
42846;SDS011;28495;49.916;14.536;2022-10-16T18:05:23;3.65;;;2.88;;
42846;SDS011;28495;49.916;14.536;2022-10-16T18:10:47;5.47;;;3.33;;
42846;SDS011;28495;49.916;14.536;2022-10-16T18:16:10;5.18;;;3.88;;
42846;SDS011;28495;49.916;14.536;2022-10-16T18:21:32;9.32;;;4.90;;
42846;SDS011;28495;49.916;14.536;2022-10-16T18:26:53;5.75;;;3.42;;
42846;SDS011;28495;49.916;14.536;2022-10-16T18:32:18;4.30;;;2.72;;
42846;SDS011;28495;49.916;14.536;2022-10-16T18:37:38;7.63;;;2.95;;
42846;SDS011;28495;49.916;14.536;2022-10-16T18:42:59;5.72;;;3.70;;
42846;SDS011;28495;49.916;14.536;2022-10-16T18:48:20;4.82;;;3.00;;
42846;SDS011;28495;49.916;14.536;2022-10-16T18:53:42;6.35;;;3.35;;
42846;SDS011;28495;49.916;14.536;2022-10-16T18:59:04;6.68;;;2.92;;
42846;SDS011;28495;49.916;14.536;2022-10-16T19:04:27;6.18;;;3.72;;
42846;SDS011;28495;49.916;14.536;2022-10-16T19:09:48;5.00;;;3.10;;
42846;SDS011;28495;49.916;14.536;2022-10-16T19:15:09;4.63;;;3.35;;
42846;SDS011;28495;49.916;14.536;2022-10-16T19:20:31;9.07;;;2.92;;
42846;SDS011;28495;49.916;14.536;2022-10-16T19:25:52;9.77;;;4.03;;
42846;SDS011;28495;49.916;14.536;2022-10-16T19:31:14;9.50;;;3.63;;
42846;SDS011;28495;49.916;14.536;2022-10-16T19:36:36;7.78;;;4.20;;
42846;SDS011;28495;49.916;14.536;2022-10-16T19:41:59;5.38;;;4.00;;
42846;SDS011;28495;49.916;14.536;2022-10-16T19:47:19;8.18;;;3.88;;
42846;SDS011;28495;49.916;14.536;2022-10-16T19:52:42;6.30;;;4.45;;
42846;SDS011;28495;49.916;14.536;2022-10-16T19:58:03;6.32;;;4.82;;
42846;SDS011;28495;49.916;14.536;2022-10-16T20:03:24;9.10;;;5.68;;
42846;SDS011;28495;49.916;14.536;2022-10-16T20:08:46;9.98;;;7.07;;
42846;SDS011;28495;49.916;14.536;2022-10-16T20:14:08;10.32;;;5.85;;
42846;SDS011;28495;49.916;14.536;2022-10-16T20:19:29;8.55;;;5.70;;
42846;SDS011;28495;49.916;14.536;2022-10-16T20:24:50;6.75;;;5.38;;
42846;SDS011;28495;49.916;14.536;2022-10-16T20:30:11;6.15;;;4.15;;
42846;SDS011;28495;49.916;14.536;2022-10-16T20:35:35;7.18;;;5.10;;
42846;SDS011;28495;49.916;14.536;2022-10-16T20:41:01;8.40;;;5.72;;
42846;SDS011;28495;49.916;14.536;2022-10-16T20:46:24;12.23;;;6.25;;
42846;SDS011;28495;49.916;14.536;2022-10-16T20:51:46;8.85;;;6.32;;
42846;SDS011;28495;49.916;14.536;2022-10-16T20:57:09;11.07;;;6.90;;
42846;SDS011;28495;49.916;14.536;2022-10-16T21:02:30;13.05;;;7.05;;
42846;SDS011;28495;49.916;14.536;2022-10-16T21:07:51;15.38;;;6.28;;
42846;SDS011;28495;49.916;14.536;2022-10-16T21:13:11;10.57;;;7.07;;
42846;SDS011;28495;49.916;14.536;2022-10-16T21:18:33;9.02;;;5.55;;
42846;SDS011;28495;49.916;14.536;2022-10-16T21:23:55;9.38;;;6.28;;
42846;SDS011;28495;49.916;14.536;2022-10-16T21:29:17;9.43;;;6.32;;
42846;SDS011;28495;49.916;14.536;2022-10-16T21:34:38;9.77;;;7.10;;
42846;SDS011;28495;49.916;14.536;2022-10-16T21:39:59;8.55;;;5.90;;
42846;SDS011;28495;49.916;14.536;2022-10-16T21:45:20;9.63;;;5.95;;
42846;SDS011;28495;49.916;14.536;2022-10-16T21:50:46;10.65;;;6.47;;
42846;SDS011;28495;49.916;14.536;2022-10-16T21:56:11;10.50;;;6.50;;
42846;SDS011;28495;49.916;14.536;2022-10-16T22:01:34;8.85;;;6.28;;
42846;SDS011;28495;49.916;14.536;2022-10-16T22:06:55;14.75;;;7.43;;
42846;SDS011;28495;49.916;14.536;2022-10-16T22:12:16;13.55;;;6.90;;
42846;SDS011;28495;49.916;14.536;2022-10-16T22:17:38;12.85;;;6.43;;
42846;SDS011;28495;49.916;14.536;2022-10-16T22:22:59;8.38;;;6.15;;
42846;SDS011;28495;49.916;14.536;2022-10-16T22:28:20;11.10;;;6.85;;
42846;SDS011;28495;49.916;14.536;2022-10-16T22:33:41;8.13;;;5.85;;
42846;SDS011;28495;49.916;14.536;2022-10-16T22:39:03;9.27;;;5.88;;
42846;SDS011;28495;49.916;14.536;2022-10-16T22:44:24;13.98;;;6.55;;
42846;SDS011;28495;49.916;14.536;2022-10-16T22:49:45;13.45;;;6.85;;
42846;SDS011;28495;49.916;14.536;2022-10-16T22:55:06;14.50;;;6.75;;
42846;SDS011;28495;49.916;14.536;2022-10-16T23:00:27;12.07;;;7.68;;
42846;SDS011;28495;49.916;14.536;2022-10-16T23:05:47;9.73;;;6.30;;
42846;SDS011;28495;49.916;14.536;2022-10-16T23:11:10;9.85;;;7.03;;
42846;SDS011;28495;49.916;14.536;2022-10-16T23:16:32;10.45;;;6.80;;
42846;SDS011;28495;49.916;14.536;2022-10-16T23:21:52;12.50;;;7.15;;
42846;SDS011;28495;49.916;14.536;2022-10-16T23:27:13;14.85;;;7.07;;
42846;SDS011;28495;49.916;14.536;2022-10-16T23:32:34;13.88;;;6.35;;
42846;SDS011;28495;49.916;14.536;2022-10-16T23:37:55;10.30;;;6.95;;
42846;SDS011;28495;49.916;14.536;2022-10-16T23:43:17;9.93;;;6.28;;
42846;SDS011;28495;49.916;14.536;2022-10-16T23:48:38;9.75;;;6.22;;
42846;SDS011;28495;49.916;14.536;2022-10-16T23:53:59;10.15;;;6.30;;
42846;SDS011;28495;49.916;14.536;2022-10-16T23:59:19;7.97;;;5.70;;
